Latest Coastal Weather Observations for Maria Island

IDT60701

Issued at 9:03 pm EDT Wednesday 18 January 2017 (issued every 10 minutes, with the page automatically refreshed every 10 minutes)

About coastal observations | Map of coastal stations | Coastal observations for TAS | Marine services | Other Formats
Station Details ID: 092124 Name: MARIA ISLAND (POINT LESUEUR) Lat: -42.66 Lon: 148.02 Height: 28.0 m
Data from the previous 72 hours. | See also: Recent months at Maria Island
Date/Time
EDT
Temp
°C
Wind Pressure Rain since
9am
mm
Weather Cloud Vis
km
Sea
Height
m
Swell
Dir  Spd
kts
Gust
kts
hPa Trend Height
m
Period
s
Dir
18/08:30pm 14.2 SSW 21 26 1014.4 - 0.0 - - - - - - -
18/08:00pm 14.4 SSW 26 31 1013.6 - 0.0 - - - - - - -
18/07:30pm 15.2 SSW 27 32 1013.0 - 0.0 - - - - - - -
18/07:00pm 15.4 SSW 26 30 1012.5 - 0.0 - - - - - - -
18/06:30pm 15.8 SSW 23 27 1012.1 - 0.0 - - - - - - -
18/06:00pm 16.4 SSW 23 27 1011.6 - 0.0 - - - - - - -
18/05:30pm 16.6 SSW 25 29 1011.0 - 0.0 - - - - - - -
18/05:00pm 16.7 SSW 23 29 1010.8 - 0.0 - - - - - - -
18/04:30pm 16.5 SSW 23 29 1010.6 - 0.0 - - - - - - -
18/04:00pm 16.9 SSW 23 29 1010.4 - 0.0 - - - - - - -
18/03:30pm 17.6 SW 25 32 1009.6 - 0.0 - - - - - - -
18/03:00pm 17.7 SSW 30 37 1009.1 - 0.0 - - - - - - -
18/02:30pm 17.5 SSW 25 31 1008.9 - 0.0 - - - - - - -
18/02:01pm 17.8 SW 25 35 1008.9 - 0.0 - - - - - - -
18/02:00pm 17.6 SW 25 36 1009.0 - 0.0 - - - - - - -
18/01:56pm 17.7 SW 27 36 1009.0 - 0.0 - - - - - - -
18/01:35pm 17.6 SW 25 38 1008.4 - 0.0 - - - - - - -
18/01:30pm 17.3 SW 20 32 1008.6 - 0.0 - - - - - - -
18/01:16pm 17.3 SW 17 32 1008.5 - 0.0 - - - - - - -
18/01:00pm 16.9 SW 25 33 1008.6 - 0.0 - - - - - - -
18/12:30pm 16.7 SW 25 39 1007.6 - 0.0 - - - - - - -
18/12:00pm 17.4 SW 27 39 1007.1 - 0.0 - - - - - - -
18/11:42am 16.6 SSW 28 39 1007.0 - 0.0 - - - - - - -
18/11:30am 17.1 SW 26 36 1007.2 - 0.0 - - - - - - -
18/11:22am 16.9 SW 25 36 1006.8 - 0.0 - - - - - - -
18/11:00am 15.8 SW 27 36 1006.4 - 0.0 - - - - - - -
18/10:48am 16.1 SW 26 39 1006.0 - 0.0 - - - - - - -
18/10:30am 16.0 SW 29 39 1005.6 - 0.0 - - - - - - -
18/10:01am 16.0 SW 30 40 1005.2 - 0.0 - - - - - - -
18/10:00am 16.1 SW 30 39 1005.3 - 0.0 - - - - - - -
18/09:30am 15.4 SW 28 36 1004.8 - 0.0 - - - - - - -
18/09:00am 15.4 SW 24 30 1004.5 - 0.0 - - - - - - -
18/08:57am 15.6 SW 25 29 1004.3 - 0.0 - - - - - - -
18/08:30am 14.8 SW 15 19 1004.3 - 0.0 - - - - - - -
18/08:00am 14.9 WSW 21 26 1003.6 - 0.0 - - - - - - -
18/07:30am 14.4 WSW 17 24 1003.5 - 0.0 - - - - - - -
18/07:00am 14.4 WSW 18 25 1002.9 - 0.0 - - - - - - -
18/06:30am 14.4 WSW 17 21 1002.7 - 0.0 - - - - - - -
18/06:19am 14.5 WSW 15 27 1002.5 - 0.0 - - - - - - -
18/06:00am 14.2 WSW 12 20 1002.3 - 0.0 - - - - - - -
18/05:39am 14.5 W 17 27 1001.5 - 0.0 - - - - - - -
18/05:30am 14.5 W 18 27 1001.3 - 0.0 - - - - - - -
18/05:26am 14.6 W 15 24 1001.3 - 0.0 - - - - - - -
18/05:00am 14.9 NW 5 8 1001.0 - 0.0 - - - - - - -
18/04:30am 14.9 WNW 4 9 1001.0 - 0.0 - - - - - - -
18/04:00am 14.9 W 8 15 1000.4 - 0.0 - - - - - - -
18/03:30am 15.4 W 13 21 1001.0 - 0.0 - - - - - - -
18/03:00am 16.4 WSW 14 19 1000.7 - 0.0 - - - - - - -
18/02:30am 16.9 WSW 10 16 1000.5 - 0.0 - - - - - - -
18/02:00am 17.2 W 5 8 1000.5 - 0.0 - - - - - - -
18/01:30am 17.1 WSW 6 8 1000.6 - 0.0 - - - - - - -
18/01:00am 17.2 N 2 4 1000.8 - 0.0 - - - - - - -
18/12:30am 16.8 NNW 5 7 1001.2 - 0.0 - - - - - - -
18/12:00am 16.5 WNW 3 4 1001.4 - 0.0 - - - - - - -
 
Date/Time
EDT
Temp
°C
Wind Pressure Rain since
9am
mm
Weather Cloud Vis
km
Sea
Height
m
Swell
Dir  Spd
kts
Gust
kts
hPa Trend Height
m
Period
s
Dir
17/11:30pm 16.8 NW 6 7 1001.9 - 0.0 - - - - - - -
17/11:00pm 16.6 NNE 4 6 1001.7 - 0.0 - - - - - - -
17/10:30pm 17.1 NNW 3 3 1002.0 - 0.0 - - - - - - -
17/10:00pm 17.2 NNW 5 7 1001.5 - 0.0 - - - - - - -
17/09:30pm 17.2 NNW 8 11 1002.0 - 0.0 - - - - - - -
17/09:00pm 17.3 NE 5 7 1002.6 - 0.0 - - - - - - -
17/08:30pm 17.5 E 5 7 1002.3 - 0.0 - - - - - - -
17/08:00pm 17.4 E 4 7 1002.3 - 0.0 - - - - - - -
17/07:30pm 17.6 ESE 6 8 1002.2 - 0.0 - - - - - - -
17/07:00pm 18.0 ESE 5 7 1001.9 - 0.0 - - - - - - -
17/06:30pm 18.0 E 5 8 1002.1 - 0.0 - - - - - - -
17/06:00pm 17.9 ESE 8 9 1002.0 - 0.0 - - - - - - -
17/05:30pm 18.1 ESE 10 12 1001.9 - 0.0 - - - - - - -
17/05:00pm 18.4 ESE 9 11 1002.1 - 0.0 - - - - - - -
17/04:30pm 18.7 ESE 10 11 1002.2 - 0.0 - - - - - - -
17/04:00pm 18.5 ESE 10 13 1002.6 - 0.0 - - - - - - -
17/03:30pm 19.2 ESE 8 10 1002.5 - 0.0 - - - - - - -
17/03:00pm 19.0 E 10 13 1002.5 - 0.0 - - - - - - -
17/02:30pm 19.1 E 10 13 1002.3 - 0.0 - - - - - - -
17/02:00pm 19.4 E 12 16 1002.3 - 0.0 - - - - - - -
17/01:30pm 19.6 ESE 12 15 1002.5 - 0.0 - - - - - - -
17/01:00pm 19.7 E 14 17 1002.7 - 0.0 - - - - - - -
17/12:30pm 20.1 ESE 12 14 1002.8 - 0.0 - - - - - - -
17/12:00pm 20.6 ESE 9 11 1003.0 - 0.0 - - - - - - -
17/11:30am 19.5 S 4 5 1003.5 - 0.0 - - - - - - -
17/11:00am 19.6 N 2 4 1003.9 - 0.0 - - - - - - -
17/10:30am 19.3 NNE 2 4 1004.2 - 0.0 - - - - - - -
17/10:00am 18.4 NNE 4 5 1004.7 - 0.0 - - - - - - -
17/09:30am 18.4 ENE 2 2 1005.3 - 0.0 - - - - - - -
17/09:00am 17.4 S 2 3 1005.4 - 0.0 - - - - - - -
17/08:30am 17.4 SW 5 9 1005.6 - 0.0 - - - - - - -
17/08:00am 16.5 W 11 13 1005.5 - 0.0 - - - - - - -
17/07:30am 15.9 W 14 16 1005.2 - 0.0 - - - - - - -
17/07:00am 15.4 W 12 15 1004.4 - 0.0 - - - - - - -
17/06:30am 15.1 WNW 11 14 1004.4 - 0.0 - - - - - - -
17/06:00am 14.6 WNW 8 11 1004.1 - 0.0 - - - - - - -
17/05:30am 15.2 WNW 2 5 1003.8 - 0.0 - - - - - - -
17/05:00am 15.2 N 2 3 1003.8 - 0.0 - - - - - - -
17/04:30am 14.7 W 3 4 1003.6 - 0.0 - - - - - - -
17/04:00am 15.5 SW 5 7 1003.5 - 0.0 - - - - - - -
17/03:30am 16.4 NW 16 18 1003.0 - 0.0 - - - - - - -
17/03:00am 16.2 NW 13 17 1003.3 - 0.0 - - - - - - -
17/02:30am 16.4 NW 14 18 1003.8 - 0.0 - - - - - - -
17/02:00am 16.2 NW 14 17 1004.0 - 0.0 - - - - - - -
17/01:30am 16.3 NW 17 21 1004.1 - 0.0 - - - - - - -
17/01:00am 16.4 WNW 7 13 1004.8 - 0.0 - - - - - - -
17/12:30am 15.8 NNW 5 7 1005.1 - 0.0 - - - - - - -
17/12:00am 16.0 N 9 11 1005.2 - 0.0 - - - - - - -
 
Date/Time
EDT
Temp
°C
Wind Pressure Rain since
9am
mm
Weather Cloud Vis
km
Sea
Height
m
Swell
Dir  Spd
kts
Gust
kts
hPa Trend Height
m
Period
s
Dir
16/11:30pm 15.9 NNW 10 11 1005.2 - 0.0 - - - - - - -
16/11:00pm 15.6 NNW 7 8 1005.6 - 0.0 - - - - - - -
16/10:30pm 15.5 NW 6 7 1005.8 - 0.0 - - - - - - -
16/10:00pm 16.4 NW 5 7 1005.7 - 0.0 - - - - - - -
16/09:30pm 16.8 NNW 7 8 1005.7 - 0.0 - - - - - - -
16/09:00pm 16.9 N 7 9 1005.7 - 0.0 - - - - - - -
16/08:30pm 17.3 N 9 10 1005.6 - 0.0 - - - - - - -
16/08:00pm 17.6 N 12 13 1005.5 - 0.0 - - - - - - -
16/07:30pm 18.1 N 13 14 1005.7 - 0.0 - - - - - - -
16/07:00pm 18.4 N 14 16 1005.7 - 0.0 - - - - - - -
16/06:30pm 18.8 N 15 18 1006.0 - 0.0 - - - - - - -
16/06:00pm 19.2 NNE 15 19 1006.2 - 0.0 - - - - - - -
16/05:30pm 19.7 N 16 19 1006.5 - 0.0 - - - - - - -
16/05:00pm 20.0 N 15 18 1006.9 - 0.0 - - - - - - -
16/04:30pm 19.9 NNE 15 17 1007.2 - 0.0 - - - - - - -
16/04:00pm 20.6 NE 9 16 1007.7 - 0.0 - - - - - - -
16/03:30pm 20.6 N 10 13 1007.9 - 0.0 - - - - - - -
16/03:00pm 20.4 SE 7 10 1008.5 - 0.0 - - - - - - -
16/02:30pm 19.9 SE 10 14 1008.6 - 0.0 - - - - - - -
16/02:00pm 19.0 ESE 13 16 1008.7 - 0.0 - - - - - - -
16/01:30pm 18.5 ESE 11 14 1009.0 - 0.0 - - - - - - -
16/01:00pm 19.4 ESE 10 14 1009.2 - 0.0 - - - - - - -
16/12:30pm 19.4 ESE 10 13 1009.5 - 0.0 - - - - - - -
16/12:00pm 18.7 ESE 12 15 1009.8 - 0.0 - - - - - - -
16/11:30am 19.2 NE 4 7 1010.3 - 0.0 - - - - - - -
16/11:00am 18.1 NNE 5 6 1010.5 - 0.0 - - - - - - -
16/10:30am 17.6 N 6 7 1010.7 - 0.0 - - - - - - -
16/10:00am 17.1 NNE 6 7 1010.7 - 0.0 - - - - - - -
16/09:30am 16.8 NNE 6 7 1011.0 - 0.0 - - - - - - -
16/09:00am 16.2 N 7 8 1011.0 - 0.0 - - - - - - -
16/08:30am 16.1 N 5 7 1011.0 - 0.0 - - - - - - -
16/08:00am 15.3 NW 4 6 1011.0 - 0.0 - - - - - - -
16/07:30am 15.1 NW 4 6 1010.8 - 0.0 - - - - - - -
16/07:00am 14.3 WNW 5 8 1010.7 - 0.0 - - - - - - -
16/06:30am 13.7 WNW 6 8 1010.4 - 0.0 - - - - - - -
16/06:00am 13.3 NW 6 7 1010.3 - 0.0 - - - - - - -
16/05:30am 13.0 NW 6 8 1010.0 - 0.0 - - - - - - -
16/05:00am 13.1 WNW 5 6 1009.7 - 0.0 - - - - - - -
16/04:30am 13.2 WNW 7 8 1009.7 - 0.0 - - - - - - -
16/04:00am 13.6 NNW 5 7 1009.6 - 0.0 - - - - - - -
16/03:30am 14.2 WNW 8 11 1009.7 - 0.0 - - - - - - -
16/03:00am 14.0 WNW 5 9 1010.0 - 0.0 - - - - - - -
16/02:30am 13.7 NW 7 8 1010.2 - 0.0 - - - - - - -
16/02:00am 14.2 NNW 7 9 1010.4 - 0.0 - - - - - - -
16/01:30am 14.2 NW 8 10 1010.7 - 0.0 - - - - - - -
16/01:00am 14.7 NW 12 15 1010.8 - 0.0 - - - - - - -
16/12:30am 14.5 NW 6 9 1011.2 - 0.0 - - - - - - -
16/12:00am 15.0 WNW 8 12 1011.5 - 0.0 - - - - - - -
 
Date/Time
EDT
Temp
°C
Wind Pressure Rain since
9am
mm
Weather Cloud Vis
km
Sea
Height
m
Swell
Dir  Spd
kts
Gust
kts
hPa Trend Height
m
Period
s
Dir
15/11:30pm 15.2 WNW 8 11 1011.7 - 0.0 - - - - - - -
15/11:00pm 15.7 W 9 12 1011.7 - 0.0 - - - - - - -
15/10:30pm 16.0 W 12 14 1011.9 - 0.0 - - - - - - -
15/10:00pm 16.1 W 8 12 1012.0 - 0.0 - - - - - - -
15/09:30pm 16.5 W 12 16 1011.9 - 0.0 - - - - - - -

Other Formats:

Comma delimited format used in spreadsheet applications
http://www.bom.gov.au/fwo/IDT60701/IDT60701.95988.axf

JavaScript Object Notation format (JSON) in row-major order
http://www.bom.gov.au/fwo/IDT60701/IDT60701.95988.json